sensor_id;sensor_type;location;lat;lon;timestamp;pressure;altitude;pressure_sealevel;temperature;humidity
63439;BME280;49567;48.958;8.294;2022-10-31T00:02:03;100826.03;;;14.14;81.17
63439;BME280;49567;48.958;8.294;2022-10-31T00:04:28;100827.69;;;14.15;81.08
63439;BME280;49567;48.958;8.294;2022-10-31T00:06:53;100822.47;;;14.13;80.72
63439;BME280;49567;48.958;8.294;2022-10-31T00:09:19;100829.28;;;14.11;80.60
63439;BME280;49567;48.958;8.294;2022-10-31T00:11:44;100821.06;;;14.06;80.57
63439;BME280;49567;48.958;8.294;2022-10-31T00:14:09;100823.22;;;14.03;80.20
63439;BME280;49567;48.958;8.294;2022-10-31T00:16:34;100829.47;;;13.99;80.08
63439;BME280;49567;48.958;8.294;2022-10-31T00:19:03;100827.50;;;13.94;80.41
63439;BME280;49567;48.958;8.294;2022-10-31T00:21:29;100822.28;;;13.93;80.22
63439;BME280;49567;48.958;8.294;2022-10-31T00:23:57;100821.50;;;13.92;80.41
63439;BME280;49567;48.958;8.294;2022-10-31T00:26:22;100814.94;;;13.93;80.23
63439;BME280;49567;48.958;8.294;2022-10-31T00:28:48;100822.88;;;13.95;80.31
63439;BME280;49567;48.958;8.294;2022-10-31T00:31:14;100815.78;;;13.94;80.45
63439;BME280;49567;48.958;8.294;2022-10-31T00:33:40;100823.13;;;13.93;80.38
63439;BME280;49567;48.958;8.294;2022-10-31T00:36:06;100818.78;;;13.92;80.75
63439;BME280;49567;48.958;8.294;2022-10-31T00:38:32;100810.06;;;13.95;81.00
63439;BME280;49567;48.958;8.294;2022-10-31T00:40:58;100815.25;;;13.97;80.74
63439;BME280;49567;48.958;8.294;2022-10-31T00:43:24;100813.63;;;13.96;81.03
63439;BME280;49567;48.958;8.294;2022-10-31T00:45:49;100819.63;;;13.98;80.70
63439;BME280;49567;48.958;8.294;2022-10-31T00:48:14;100821.28;;;13.99;81.30
63439;BME280;49567;48.958;8.294;2022-10-31T00:50:40;100816.63;;;13.99;80.96
63439;BME280;49567;48.958;8.294;2022-10-31T00:53:05;100821.28;;;13.99;81.08
63439;BME280;49567;48.958;8.294;2022-10-31T00:55:31;100819.88;;;13.96;81.31
63439;BME280;49567;48.958;8.294;2022-10-31T00:57:57;100820.91;;;13.90;81.00
63439;BME280;49567;48.958;8.294;2022-10-31T01:00:22;100818.41;;;13.84;80.90
63439;BME280;49567;48.958;8.294;2022-10-31T01:02:48;100821.84;;;13.74;80.60
63439;BME280;49567;48.958;8.294;2022-10-31T01:05:13;100820.91;;;13.64;80.71
63439;BME280;49567;48.958;8.294;2022-10-31T01:07:39;100823.59;;;13.59;80.38
63439;BME280;49567;48.958;8.294;2022-10-31T01:10:06;100825.16;;;13.55;80.03
63439;BME280;49567;48.958;8.294;2022-10-31T01:12:43;100830.88;;;13.53;79.83
63439;BME280;49567;48.958;8.294;2022-10-31T01:15:11;100826.75;;;13.50;79.79
63439;BME280;49567;48.958;8.294;2022-10-31T01:17:36;100820.50;;;13.50;79.54
63439;BME280;49567;48.958;8.294;2022-10-31T01:20:03;100825.94;;;13.50;79.48
63439;BME280;49567;48.958;8.294;2022-10-31T01:22:29;100818.03;;;13.48;79.43
63439;BME280;49567;48.958;8.294;2022-10-31T01:24:54;100824.81;;;13.46;79.16
63439;BME280;49567;48.958;8.294;2022-10-31T01:27:19;100818.53;;;13.45;79.41
63439;BME280;49567;48.958;8.294;2022-10-31T01:29:45;100826.16;;;13.43;79.01
63439;BME280;49567;48.958;8.294;2022-10-31T01:32:10;100820.72;;;13.43;79.29
63439;BME280;49567;48.958;8.294;2022-10-31T01:34:35;100815.25;;;13.43;79.37
63439;BME280;49567;48.958;8.294;2022-10-31T01:37:01;100827.78;;;13.44;79.26
63439;BME280;49567;48.958;8.294;2022-10-31T01:39:26;100827.78;;;13.44;78.96
63439;BME280;49567;48.958;8.294;2022-10-31T01:41:52;100819.28;;;13.41;79.15
63439;BME280;49567;48.958;8.294;2022-10-31T01:49:34;100826.03;;;13.33;79.10
63439;BME280;49567;48.958;8.294;2022-10-31T01:52:04;100826.81;;;13.34;79.43
63439;BME280;49567;48.958;8.294;2022-10-31T01:54:35;100823.88;;;13.35;79.34
63439;BME280;49567;48.958;8.294;2022-10-31T01:57:04;100812.97;;;13.35;79.09
63439;BME280;49567;48.958;8.294;2022-10-31T01:59:34;100822.78;;;13.36;79.20
63439;BME280;49567;48.958;8.294;2022-10-31T02:02:02;100821.13;;;13.35;79.22
63439;BME280;49567;48.958;8.294;2022-10-31T02:04:29;100824.69;;;13.36;79.03
63439;BME280;49567;48.958;8.294;2022-10-31T02:07:07;100818.97;;;13.37;79.25
63439;BME280;49567;48.958;8.294;2022-10-31T02:09:34;100817.06;;;13.38;79.29
63439;BME280;49567;48.958;8.294;2022-10-31T02:12:02;100811.13;;;13.41;79.38
63439;BME280;49567;48.958;8.294;2022-10-31T02:14:29;100808.41;;;13.41;79.56
63439;BME280;49567;48.958;8.294;2022-10-31T02:16:55;100808.41;;;13.41;79.51
63439;BME280;49567;48.958;8.294;2022-10-31T02:22:09;100811.00;;;13.31;79.59
63439;BME280;49567;48.958;8.294;2022-10-31T02:25:02;100806.59;;;13.25;79.13
63439;BME280;49567;48.958;8.294;2022-10-31T02:28:01;100813.03;;;13.19;79.14
63439;BME280;49567;48.958;8.294;2022-10-31T02:33:39;100811.66;;;13.16;78.66
63439;BME280;49567;48.958;8.294;2022-10-31T02:36:22;100812.41;;;13.12;78.81
63439;BME280;49567;48.958;8.294;2022-10-31T02:39:06;100819.50;;;13.13;78.88
63439;BME280;49567;48.958;8.294;2022-10-31T02:44:08;100806.97;;;13.12;78.52
63439;BME280;49567;48.958;8.294;2022-10-31T02:49:57;100813.22;;;13.12;78.60
63439;BME280;49567;48.958;8.294;2022-10-31T02:52:28;100810.75;;;13.11;78.34
63439;BME280;49567;48.958;8.294;2022-10-31T02:54:54;100805.56;;;13.09;78.44
63439;BME280;49567;48.958;8.294;2022-10-31T02:57:29;100811.34;;;13.13;78.71
63439;BME280;49567;48.958;8.294;2022-10-31T03:00:00;100802.91;;;13.14;78.99
63439;BME280;49567;48.958;8.294;2022-10-31T03:10:52;100795.25;;;13.11;79.03
63439;BME280;49567;48.958;8.294;2022-10-31T03:13:39;100796.59;;;13.09;78.96
63439;BME280;49567;48.958;8.294;2022-10-31T03:16:16;100799.31;;;13.09;79.33
63439;BME280;49567;48.958;8.294;2022-10-31T03:18:50;100803.06;;;13.08;79.32
63439;BME280;49567;48.958;8.294;2022-10-31T03:21:28;100798.97;;;13.05;79.42
63439;BME280;49567;48.958;8.294;2022-10-31T03:23:56;100809.84;;;13.05;79.64
63439;BME280;49567;48.958;8.294;2022-10-31T03:26:23;100801.94;;;13.04;79.29
63439;BME280;49567;48.958;8.294;2022-10-31T03:28:55;100804.06;;;13.01;79.73
63439;BME280;49567;48.958;8.294;2022-10-31T03:31:26;100810.84;;;12.99;79.44
63439;BME280;49567;48.958;8.294;2022-10-31T03:33:56;100808.09;;;12.94;79.58
63439;BME280;49567;48.958;8.294;2022-10-31T03:36:24;100808.88;;;12.94;79.47
63439;BME280;49567;48.958;8.294;2022-10-31T03:38:51;100809.97;;;12.93;79.41
63439;BME280;49567;48.958;8.294;2022-10-31T03:41:21;100807.50;;;12.92;79.37
63439;BME280;49567;48.958;8.294;2022-10-31T03:43:55;100799.84;;;12.89;79.47
63439;BME280;49567;48.958;8.294;2022-10-31T03:46:22;100796.56;;;12.87;79.46
63439;BME280;49567;48.958;8.294;2022-10-31T03:48:48;100800.34;;;12.86;79.41
63439;BME280;49567;48.958;8.294;2022-10-31T03:51:21;100793.84;;;12.87;79.29
63439;BME280;49567;48.958;8.294;2022-10-31T03:53:56;100803.38;;;12.89;79.21
63439;BME280;49567;48.958;8.294;2022-10-31T03:56:42;100797.44;;;12.92;79.33
63439;BME280;49567;48.958;8.294;2022-10-31T03:59:32;100805.28;;;12.89;79.41
63439;BME280;49567;48.958;8.294;2022-10-31T04:02:03;100805.28;;;12.89;79.38
63439;BME280;49567;48.958;8.294;2022-10-31T04:04:32;100801.16;;;12.86;79.69
63439;BME280;49567;48.958;8.294;2022-10-31T04:06:59;100800.84;;;12.83;79.59
63439;BME280;49567;48.958;8.294;2022-10-31T04:09:27;100795.97;;;12.85;79.37
63439;BME280;49567;48.958;8.294;2022-10-31T04:11:54;100797.84;;;12.84;79.57
63439;BME280;49567;48.958;8.294;2022-10-31T04:14:24;100792.41;;;12.84;79.39
63439;BME280;49567;48.958;8.294;2022-10-31T04:16:50;100797.38;;;12.87;79.19
63439;BME280;49567;48.958;8.294;2022-10-31T04:19:16;100792.19;;;12.86;79.54
63439;BME280;49567;48.958;8.294;2022-10-31T04:21:42;100797.63;;;12.86;79.20
63439;BME280;49567;48.958;8.294;2022-10-31T04:24:10;100799.28;;;12.87;79.48
63439;BME280;49567;48.958;8.294;2022-10-31T04:26:35;100792.69;;;12.83;79.85
63439;BME280;49567;48.958;8.294;2022-10-31T04:29:01;100798.38;;;12.81;80.07
63439;BME280;49567;48.958;8.294;2022-10-31T04:31:26;100804.06;;;12.80;80.08
63439;BME280;49567;48.958;8.294;2022-10-31T04:33:51;100793.69;;;12.77;80.13
63439;BME280;49567;48.958;8.294;2022-10-31T04:36:17;100790.72;;;12.78;79.79
63439;BME280;49567;48.958;8.294;2022-10-31T04:38:42;100786.88;;;12.74;80.04
63439;BME280;49567;48.958;8.294;2022-10-31T04:41:07;100791.22;;;12.75;79.72
63439;BME280;49567;48.958;8.294;2022-10-31T04:43:33;100789.59;;;12.74;79.95
63439;BME280;49567;48.958;8.294;2022-10-31T04:45:58;100790.66;;;12.73;79.96
63439;BME280;49567;48.958;8.294;2022-10-31T04:48:24;100788.75;;;12.74;80.11
63439;BME280;49567;48.958;8.294;2022-10-31T04:50:49;100780.00;;;12.72;80.05
63439;BME280;49567;48.958;8.294;2022-10-31T04:53:14;100788.16;;;12.72;79.64
63439;BME280;49567;48.958;8.294;2022-10-31T04:55:40;100788.75;;;12.74;79.67
63439;BME280;49567;48.958;8.294;2022-10-31T04:58:05;100792.78;;;12.71;79.99
63439;BME280;49567;48.958;8.294;2022-10-31T05:00:30;100786.78;;;12.69;79.98
63439;BME280;49567;48.958;8.294;2022-10-31T05:02:57;100784.81;;;12.65;79.81
63439;BME280;49567;48.958;8.294;2022-10-31T05:05:25;100779.81;;;12.57;79.82
63439;BME280;49567;48.958;8.294;2022-10-31T05:07:51;100772.91;;;12.49;79.56
63439;BME280;49567;48.958;8.294;2022-10-31T05:10:19;100776.94;;;12.46;79.26
63439;BME280;49567;48.958;8.294;2022-10-31T05:12:50;100780.06;;;12.38;79.57
63439;BME280;49567;48.958;8.294;2022-10-31T05:15:17;100778.94;;;12.34;79.13
63439;BME280;49567;48.958;8.294;2022-10-31T05:17:43;100778.34;;;12.32;78.51
63439;BME280;49567;48.958;8.294;2022-10-31T05:20:10;100776.13;;;12.29;78.95
63439;BME280;49567;48.958;8.294;2022-10-31T05:22:35;100767.41;;;12.27;78.82
63439;BME280;49567;48.958;8.294;2022-10-31T05:25:01;100766.31;;;12.28;78.47
63439;BME280;49567;48.958;8.294;2022-10-31T05:27:26;100761.97;;;12.27;78.46
63439;BME280;49567;48.958;8.294;2022-10-31T05:29:51;100772.84;;;12.27;78.65
63439;BME280;49567;48.958;8.294;2022-10-31T05:32:17;100769.53;;;12.25;78.73
63439;BME280;49567;48.958;8.294;2022-10-31T05:34:42;100768.47;;;12.26;78.58
63439;BME280;49567;48.958;8.294;2022-10-31T05:37:07;100773.09;;;12.26;78.70
63439;BME280;49567;48.958;8.294;2022-10-31T05:39:32;100764.94;;;12.26;78.94
63439;BME280;49567;48.958;8.294;2022-10-31T05:41:58;100768.25;;;12.28;78.86
63439;BME280;49567;48.958;8.294;2022-10-31T05:44:23;100770.13;;;12.27;78.69
63439;BME280;49567;48.958;8.294;2022-10-31T05:46:48;100760.31;;;12.26;79.16
63439;BME280;49567;48.958;8.294;2022-10-31T05:49:14;100766.03;;;12.25;79.03
63439;BME280;49567;48.958;8.294;2022-10-31T05:51:39;100773.09;;;12.26;79.04
63439;BME280;49567;48.958;8.294;2022-10-31T05:54:04;100767.09;;;12.24;79.37
63439;BME280;49567;48.958;8.294;2022-10-31T05:56:30;100762.47;;;12.24;79.45
63439;BME280;49567;48.958;8.294;2022-10-31T05:58:55;100758.44;;;12.27;79.13
63439;BME280;49567;48.958;8.294;2022-10-31T06:01:23;100766.09;;;12.30;79.26
63439;BME280;49567;48.958;8.294;2022-10-31T06:03:48;100763.38;;;12.30;79.02
63439;BME280;49567;48.958;8.294;2022-10-31T06:06:13;100764.44;;;12.29;78.92
63439;BME280;49567;48.958;8.294;2022-10-31T06:08:39;100766.91;;;12.30;79.05
63439;BME280;49567;48.958;8.294;2022-10-31T06:11:05;100766.66;;;12.32;79.24
63439;BME280;49567;48.958;8.294;2022-10-31T06:13:30;100763.44;;;12.35;78.90
63439;BME280;49567;48.958;8.294;2022-10-31T06:15:55;100773.50;;;12.34;79.16
63439;BME280;49567;48.958;8.294;2022-10-31T06:18:21;100777.84;;;12.35;79.28
63439;BME280;49567;48.958;8.294;2022-10-31T06:20:46;100774.25;;;12.30;79.45
63439;BME280;49567;48.958;8.294;2022-10-31T06:23:11;100769.03;;;12.28;79.53
63439;BME280;49567;48.958;8.294;2022-10-31T06:25:36;100773.00;;;12.37;79.44
63439;BME280;49567;48.958;8.294;2022-10-31T06:28:02;100772.25;;;12.42;79.59
63439;BME280;49567;48.958;8.294;2022-10-31T06:30:27;100769.03;;;12.45;79.32
63439;BME280;49567;48.958;8.294;2022-10-31T06:32:52;100762.03;;;12.49;79.53
63439;BME280;49567;48.958;8.294;2022-10-31T06:35:18;100767.22;;;12.51;79.55
63439;BME280;49567;48.958;8.294;2022-10-31T06:37:50;100766.63;;;12.48;79.44
63439;BME280;49567;48.958;8.294;2022-10-31T06:40:16;100764.69;;;12.44;79.50
63439;BME280;49567;48.958;8.294;2022-10-31T06:42:41;100775.56;;;12.44;79.17
63439;BME280;49567;48.958;8.294;2022-10-31T06:45:07;100765.75;;;12.43;79.45
63439;BME280;49567;48.958;8.294;2022-10-31T06:47:32;100767.41;;;12.44;79.19
63439;BME280;49567;48.958;8.294;2022-10-31T06:49:57;100769.78;;;12.40;79.50
63439;BME280;49567;48.958;8.294;2022-10-31T06:52:23;100771.69;;;12.40;79.13
63439;BME280;49567;48.958;8.294;2022-10-31T06:54:48;100770.69;;;12.46;78.95
63439;BME280;49567;48.958;8.294;2022-10-31T06:57:13;100779.16;;;12.49;78.79
63439;BME280;49567;48.958;8.294;2022-10-31T06:59:39;100774.03;;;12.53;78.66
63439;BME280;49567;48.958;8.294;2022-10-31T07:02:04;100781.47;;;12.58;78.83
63439;BME280;49567;48.958;8.294;2022-10-31T07:04:30;100774.69;;;12.60;78.80
63439;BME280;49567;48.958;8.294;2022-10-31T07:06:55;100776.59;;;12.60;79.07
63439;BME280;49567;48.958;8.294;2022-10-31T07:09:20;100777.66;;;12.59;79.11
63439;BME280;49567;48.958;8.294;2022-10-31T07:11:46;100774.69;;;12.60;79.13
63439;BME280;49567;48.958;8.294;2022-10-31T07:14:11;100770.16;;;12.66;78.97
63439;BME280;49567;48.958;8.294;2022-10-31T07:16:36;100766.91;;;12.69;79.28
63439;BME280;49567;48.958;8.294;2022-10-31T07:19:02;100770.03;;;12.77;79.39
63439;BME280;49567;48.958;8.294;2022-10-31T07:21:27;100761.94;;;12.82;79.34
63439;BME280;49567;48.958;8.294;2022-10-31T07:23:52;100767.69;;;12.86;79.66
63439;BME280;49567;48.958;8.294;2022-10-31T07:26:17;100778.06;;;12.89;79.71
63439;BME280;49567;48.958;8.294;2022-10-31T07:28:43;100781.13;;;12.92;79.72
63439;BME280;49567;48.958;8.294;2022-10-31T07:31:08;100778.72;;;12.96;79.76
63439;BME280;49567;48.958;8.294;2022-10-31T07:33:33;100781.75;;;12.99;79.94
63439;BME280;49567;48.958;8.294;2022-10-31T07:35:59;100778.84;;;13.06;79.87
63439;BME280;49567;48.958;8.294;2022-10-31T07:38:25;100776.69;;;13.08;79.92
63439;BME280;49567;48.958;8.294;2022-10-31T07:40:51;100785.78;;;13.14;80.06
63439;BME280;49567;48.958;8.294;2022-10-31T07:43:20;100780.63;;;13.17;79.91
63439;BME280;49567;48.958;8.294;2022-10-31T07:45:53;100789.94;;;13.21;80.06
63439;BME280;49567;48.958;8.294;2022-10-31T07:48:19;100794.03;;;13.24;79.85
63439;BME280;49567;48.958;8.294;2022-10-31T07:50:44;100785.06;;;13.23;80.20
63439;BME280;49567;48.958;8.294;2022-10-31T07:53:11;100781.25;;;13.24;80.25
63439;BME280;49567;48.958;8.294;2022-10-31T07:55:38;100786.78;;;13.29;80.32
63439;BME280;49567;48.958;8.294;2022-10-31T07:58:12;100791.72;;;13.32;80.10
63439;BME280;49567;48.958;8.294;2022-10-31T08:00:39;100785.75;;;13.35;80.17
63439;BME280;49567;48.958;8.294;2022-10-31T08:05:32;100786.50;;;13.52;79.83
63439;BME280;49567;48.958;8.294;2022-10-31T08:07:57;100781.59;;;13.55;79.92
63439;BME280;49567;48.958;8.294;2022-10-31T08:10:24;100783.81;;;13.58;79.87
63439;BME280;49567;48.958;8.294;2022-10-31T08:12:57;100781.72;;;13.65;79.73
63439;BME280;49567;48.958;8.294;2022-10-31T08:15:23;100780.13;;;13.69;79.97
63439;BME280;49567;48.958;8.294;2022-10-31T08:17:49;100778.78;;;13.71;79.96
63439;BME280;49567;48.958;8.294;2022-10-31T08:20:14;100778.25;;;13.74;79.44
63439;BME280;49567;48.958;8.294;2022-10-31T08:22:39;100782.34;;;13.77;79.59
63439;BME280;49567;48.958;8.294;2022-10-31T08:25:05;100782.66;;;13.80;79.73
63439;BME280;49567;48.958;8.294;2022-10-31T08:27:30;100782.44;;;13.82;79.76
63439;BME280;49567;48.958;8.294;2022-10-31T08:29:55;100776.75;;;13.88;79.51
63439;BME280;49567;48.958;8.294;2022-10-31T08:32:21;100774.38;;;13.97;79.65
63439;BME280;49567;48.958;8.294;2022-10-31T08:34:46;100785.06;;;14.03;79.60
63439;BME280;49567;48.958;8.294;2022-10-31T08:37:11;100787.53;;;14.05;79.47
63439;BME280;49567;48.958;8.294;2022-10-31T08:39:36;100784.84;;;14.10;79.55
63439;BME280;49567;48.958;8.294;2022-10-31T08:42:02;100781.06;;;14.16;79.84
63439;BME280;49567;48.958;8.294;2022-10-31T08:44:27;100780.31;;;14.21;79.66
63439;BME280;49567;48.958;8.294;2022-10-31T08:46:53;100777.09;;;14.29;79.67
63439;BME280;49567;48.958;8.294;2022-10-31T08:49:18;100773.97;;;14.42;79.10
63439;BME280;49567;48.958;8.294;2022-10-31T08:51:47;100772.38;;;14.51;78.80
63439;BME280;49567;48.958;8.294;2022-10-31T08:54:12;100775.34;;;14.49;78.83
63439;BME280;49567;48.958;8.294;2022-10-31T08:56:38;100782.75;;;14.54;79.14
63439;BME280;49567;48.958;8.294;2022-10-31T08:59:03;100773.78;;;14.59;79.16
63439;BME280;49567;48.958;8.294;2022-10-31T09:01:28;100777.63;;;14.63;79.02
63439;BME280;49567;48.958;8.294;2022-10-31T09:03:53;100764.31;;;14.71;78.71
63439;BME280;49567;48.958;8.294;2022-10-31T09:06:19;100773.09;;;14.83;78.49
63439;BME280;49567;48.958;8.294;2022-10-31T09:08:44;100761.94;;;14.90;78.28
63439;BME280;49567;48.958;8.294;2022-10-31T09:11:09;100763.59;;;14.96;78.22
63439;BME280;49567;48.958;8.294;2022-10-31T09:13:35;100761.75;;;15.01;77.78
63439;BME280;49567;48.958;8.294;2022-10-31T09:16:00;100755.75;;;15.10;77.72
63439;BME280;49567;48.958;8.294;2022-10-31T09:18:26;100762.31;;;15.19;77.86
63439;BME280;49567;48.958;8.294;2022-10-31T09:20:53;100763.47;;;15.38;77.66
63439;BME280;49567;48.958;8.294;2022-10-31T09:23:21;100753.47;;;15.64;76.63
63439;BME280;49567;48.958;8.294;2022-10-31T09:25:47;100749.66;;;15.70;76.24
63439;BME280;49567;48.958;8.294;2022-10-31T09:28:14;100749.09;;;15.63;76.28
63439;BME280;49567;48.958;8.294;2022-10-31T09:30:40;100752.94;;;15.67;76.02
63439;BME280;49567;48.958;8.294;2022-10-31T09:33:10;100751.84;;;15.73;75.86
63439;BME280;49567;48.958;8.294;2022-10-31T09:35:35;100748.84;;;15.84;75.61
63439;BME280;49567;48.958;8.294;2022-10-31T09:38:03;100745.00;;;16.10;74.82
63439;BME280;49567;48.958;8.294;2022-10-31T09:40:55;100742.75;;;16.63;72.99
63439;BME280;49567;48.958;8.294;2022-10-31T09:43:47;100736.94;;;16.95;72.00
63439;BME280;49567;48.958;8.294;2022-10-31T09:52:02;100747.88;;;16.90;72.21
63439;BME280;49567;48.958;8.294;2022-10-31T09:57:01;100736.75;;;17.30;70.85
63439;BME280;49567;48.958;8.294;2022-10-31T09:59:33;100740.19;;;17.56;69.85
63439;BME280;49567;48.958;8.294;2022-10-31T10:05:01;100739.00;;;17.67;69.63
63439;BME280;49567;48.958;8.294;2022-10-31T10:09:56;100727.31;;;17.51;69.94
63439;BME280;49567;48.958;8.294;2022-10-31T10:15:31;100725.25;;;17.77;68.79
63439;BME280;49567;48.958;8.294;2022-10-31T10:26:17;100712.00;;;16.96;71.43
63439;BME280;49567;48.958;8.294;2022-10-31T10:28:47;100713.41;;;16.89;71.85
63439;BME280;49567;48.958;8.294;2022-10-31T10:31:21;100729.00;;;16.88;72.20
63439;BME280;49567;48.958;8.294;2022-10-31T10:34:07;100716.16;;;16.89;72.05
63439;BME280;49567;48.958;8.294;2022-10-31T10:36:43;100713.41;;;16.89;72.12
63439;BME280;49567;48.958;8.294;2022-10-31T10:39:16;100704.66;;;16.87;72.53
63439;BME280;49567;48.958;8.294;2022-10-31T10:41:52;100705.19;;;16.89;72.67
63439;BME280;49567;48.958;8.294;2022-10-31T10:44:39;100706.56;;;16.91;72.69
63439;BME280;49567;48.958;8.294;2022-10-31T10:47:26;100702.72;;;16.92;72.62
63439;BME280;49567;48.958;8.294;2022-10-31T10:50:17;100704.59;;;16.97;72.27
63439;BME280;49567;48.958;8.294;2022-10-31T10:52:47;100704.06;;;16.95;72.46
63439;BME280;49567;48.958;8.294;2022-10-31T10:58:02;100698.84;;;16.98;72.36
63439;BME280;49567;48.958;8.294;2022-10-31T11:00:34;100692.56;;;16.98;72.34
63439;BME280;49567;48.958;8.294;2022-10-31T11:03:01;100679.66;;;17.03;72.44
63439;BME280;49567;48.958;8.294;2022-10-31T11:05:42;100679.34;;;17.10;72.21
63439;BME280;49567;48.958;8.294;2022-10-31T11:08:10;100680.69;;;17.12;72.51
63439;BME280;49567;48.958;8.294;2022-10-31T11:10:36;100674.13;;;17.13;72.47
63439;BME280;49567;48.958;8.294;2022-10-31T11:13:06;100668.63;;;17.19;72.88
63439;BME280;49567;48.958;8.294;2022-10-31T11:18:27;100663.09;;;17.24;72.86
63439;BME280;49567;48.958;8.294;2022-10-31T11:20:56;100666.38;;;17.26;72.63
63439;BME280;49567;48.958;8.294;2022-10-31T11:23:23;100662.53;;;17.27;72.33
63439;BME280;49567;48.958;8.294;2022-10-31T11:28:17;100646.72;;;17.19;72.55
63439;BME280;49567;48.958;8.294;2022-10-31T11:30:52;100649.16;;;17.20;72.46
63439;BME280;49567;48.958;8.294;2022-10-31T11:33:40;100659.28;;;17.20;72.46
63439;BME280;49567;48.958;8.294;2022-10-31T11:36:31;100649.41;;;17.24;72.00
63439;BME280;49567;48.958;8.294;2022-10-31T11:38:59;100652.41;;;17.27;71.98
63439;BME280;49567;48.958;8.294;2022-10-31T11:41:29;100651.56;;;17.32;71.85
63439;BME280;49567;48.958;8.294;2022-10-31T11:43:57;100649.34;;;17.34;72.05
63439;BME280;49567;48.958;8.294;2022-10-31T11:46:33;100649.59;;;17.37;71.97
63439;BME280;49567;48.958;8.294;2022-10-31T11:48:59;100659.41;;;17.43;71.87
63439;BME280;49567;48.958;8.294;2022-10-31T11:51:27;100656.09;;;17.46;71.51
63439;BME280;49567;48.958;8.294;2022-10-31T11:53:57;100649.53;;;17.42;71.49
63439;BME280;49567;48.958;8.294;2022-10-31T11:56:23;100645.25;;;17.31;71.80
63439;BME280;49567;48.958;8.294;2022-10-31T11:59:13;100632.41;;;17.27;72.36
63439;BME280;49567;48.958;8.294;2022-10-31T12:01:40;100624.50;;;17.25;72.62
63439;BME280;49567;48.958;8.294;2022-10-31T12:04:12;100618.72;;;17.27;72.53
63439;BME280;49567;48.958;8.294;2022-10-31T12:06:43;100611.59;;;17.26;72.33
63439;BME280;49567;48.958;8.294;2022-10-31T12:09:28;100609.97;;;17.25;72.37
63439;BME280;49567;48.958;8.294;2022-10-31T12:12:02;100601.78;;;17.20;72.61
63439;BME280;49567;48.958;8.294;2022-10-31T12:17:19;100599.53;;;17.27;72.52
63439;BME280;49567;48.958;8.294;2022-10-31T12:25:43;100578.63;;;17.36;71.59
63439;BME280;49567;48.958;8.294;2022-10-31T12:31:14;100574.63;;;17.28;71.68
63439;BME280;49567;48.958;8.294;2022-10-31T12:34:06;100556.81;;;17.26;71.92
63439;BME280;49567;48.958;8.294;2022-10-31T12:42:27;100561.00;;;17.18;71.45
63439;BME280;49567;48.958;8.294;2022-10-31T12:45:11;100556.09;;;17.15;70.94
63439;BME280;49567;48.958;8.294;2022-10-31T12:50:34;100564.50;;;17.24;70.76
63439;BME280;49567;48.958;8.294;2022-10-31T12:53:38;100549.31;;;17.41;69.85
63439;BME280;49567;48.958;8.294;2022-10-31T12:59:28;100545.13;;;17.78;69.28
63439;BME280;49567;48.958;8.294;2022-10-31T13:04:36;100524.53;;;17.80;69.71
63439;BME280;49567;48.958;8.294;2022-10-31T13:07:12;100529.06;;;17.66;69.85
63439;BME280;49567;48.958;8.294;2022-10-31T13:12:53;100535.53;;;17.46;70.47
63439;BME280;49567;48.958;8.294;2022-10-31T13:15:25;100520.19;;;17.45;70.74
63439;BME280;49567;48.958;8.294;2022-10-31T13:17:55;100503.00;;;17.40;71.09
63439;BME280;49567;48.958;8.294;2022-10-31T13:20:27;100496.69;;;17.39;70.87
63439;BME280;49567;48.958;8.294;2022-10-31T13:22:56;100498.28;;;17.45;70.93
63439;BME280;49567;48.958;8.294;2022-10-31T13:25:31;100485.94;;;17.48;70.62
63439;BME280;49567;48.958;8.294;2022-10-31T13:28:01;100489.28;;;17.45;70.23
63439;BME280;49567;48.958;8.294;2022-10-31T13:30:32;100483.81;;;17.40;70.23
63439;BME280;49567;48.958;8.294;2022-10-31T13:33:14;100497.00;;;17.38;70.16
63439;BME280;49567;48.958;8.294;2022-10-31T13:35:52;100499.53;;;17.29;70.43
63439;BME280;49567;48.958;8.294;2022-10-31T13:38:30;100497.13;;;17.23;70.61
63439;BME280;49567;48.958;8.294;2022-10-31T13:41:10;100484.06;;;17.15;70.84
63439;BME280;49567;48.958;8.294;2022-10-31T13:44:01;100480.25;;;17.16;71.23
63439;BME280;49567;48.958;8.294;2022-10-31T13:46:35;100488.00;;;17.32;71.17
63439;BME280;49567;48.958;8.294;2022-10-31T13:49:01;100490.72;;;17.37;71.52
63439;BME280;49567;48.958;8.294;2022-10-31T13:51:33;100498.41;;;17.35;71.79
63439;BME280;49567;48.958;8.294;2022-10-31T13:54:22;100494.53;;;17.36;71.75
63439;BME280;49567;48.958;8.294;2022-10-31T13:56:51;100484.81;;;17.25;72.30
63439;BME280;49567;48.958;8.294;2022-10-31T13:59:19;100505.91;;;17.25;72.45
63439;BME280;49567;48.958;8.294;2022-10-31T14:01:49;100501.75;;;17.27;72.41
63439;BME280;49567;48.958;8.294;2022-10-31T14:04:18;100501.41;;;17.34;72.19
63439;BME280;49567;48.958;8.294;2022-10-31T14:06:57;100485.22;;;17.37;72.62
63439;BME280;49567;48.958;8.294;2022-10-31T14:09:30;100486.28;;;17.41;72.55
63439;BME280;49567;48.958;8.294;2022-10-31T14:11:58;100485.16;;;17.42;72.85
63439;BME280;49567;48.958;8.294;2022-10-31T14:14:30;100472.00;;;17.44;73.04
63439;BME280;49567;48.958;8.294;2022-10-31T14:16:59;100465.41;;;17.45;72.97
63439;BME280;49567;48.958;8.294;2022-10-31T14:19:27;100474.34;;;17.61;72.80
63439;BME280;49567;48.958;8.294;2022-10-31T14:21:52;100460.66;;;17.56;72.92
63439;BME280;49567;48.958;8.294;2022-10-31T14:31:53;100457.97;;;17.51;73.42
63439;BME280;49567;48.958;8.294;2022-10-31T14:34:37;100455.19;;;17.56;73.20
63439;BME280;49567;48.958;8.294;2022-10-31T14:40:20;100455.97;;;17.61;73.11
63439;BME280;49567;48.958;8.294;2022-10-31T14:47:59;100423.28;;;17.41;73.42